sensor_id;sensor_type;location;lat;lon;timestamp;temperature;humidity
8248;DHT22;4164;49.844;8.830;2024-01-30T00:01:50;1.50;1.00
8248;DHT22;4164;49.844;8.830;2024-01-30T00:04:16;1.40;1.00
8248;DHT22;4164;49.844;8.830;2024-01-30T00:06:43;1.40;1.00
8248;DHT22;4164;49.844;8.830;2024-01-30T00:09:08;1.70;1.00
8248;DHT22;4164;49.844;8.830;2024-01-30T00:11:35;1.50;1.00
8248;DHT22;4164;49.844;8.830;2024-01-30T00:14:01;1.20;1.00
8248;DHT22;4164;49.844;8.830;2024-01-30T00:16:27;1.50;1.00
8248;DHT22;4164;49.844;8.830;2024-01-30T00:18:55;1.70;1.00
8248;DHT22;4164;49.844;8.830;2024-01-30T00:21:21;1.80;1.00
8248;DHT22;4164;49.844;8.830;2024-01-30T00:23:47;1.40;1.00
8248;DHT22;4164;49.844;8.830;2024-01-30T00:26:13;1.30;1.00
8248;DHT22;4164;49.844;8.830;2024-01-30T00:28:40;1.50;1.00
8248;DHT22;4164;49.844;8.830;2024-01-30T00:31:06;1.50;1.00
8248;DHT22;4164;49.844;8.830;2024-01-30T00:33:31;1.70;99.90
8248;DHT22;4164;49.844;8.830;2024-01-30T00:35:57;1.80;99.90
8248;DHT22;4164;49.844;8.830;2024-01-30T00:38:25;1.50;99.90
8248;DHT22;4164;49.844;8.830;2024-01-30T00:40:51;1.40;99.90
8248;DHT22;4164;49.844;8.830;2024-01-30T00:43:16;1.30;99.90
8248;DHT22;4164;49.844;8.830;2024-01-30T00:45:44;1.40;99.90
8248;DHT22;4164;49.844;8.830;2024-01-30T00:48:09;1.60;99.90
8248;DHT22;4164;49.844;8.830;2024-01-30T00:50:35;1.80;99.90
8248;DHT22;4164;49.844;8.830;2024-01-30T00:53:01;1.80;99.90
8248;DHT22;4164;49.844;8.830;2024-01-30T00:55:26;1.60;99.90
8248;DHT22;4164;49.844;8.830;2024-01-30T00:57:52;1.70;99.90
8248;DHT22;4164;49.844;8.830;2024-01-30T01:00:17;1.70;99.90
8248;DHT22;4164;49.844;8.830;2024-01-30T01:02:43;1.40;99.90
8248;DHT22;4164;49.844;8.830;2024-01-30T01:05:10;1.60;99.90
8248;DHT22;4164;49.844;8.830;2024-01-30T01:07:35;1.50;99.90
8248;DHT22;4164;49.844;8.830;2024-01-30T01:10:01;1.40;99.90
8248;DHT22;4164;49.844;8.830;2024-01-30T01:12:27;1.30;99.90
8248;DHT22;4164;49.844;8.830;2024-01-30T01:14:53;1.50;99.90
8248;DHT22;4164;49.844;8.830;2024-01-30T01:17:21;1.30;99.90
8248;DHT22;4164;49.844;8.830;2024-01-30T01:19:47;1.50;99.90
8248;DHT22;4164;49.844;8.830;2024-01-30T01:22:12;1.30;99.90
8248;DHT22;4164;49.844;8.830;2024-01-30T01:24:40;1.50;99.90
8248;DHT22;4164;49.844;8.830;2024-01-30T01:27:06;1.60;99.90
8248;DHT22;4164;49.844;8.830;2024-01-30T01:29:31;1.60;99.90
8248;DHT22;4164;49.844;8.830;2024-01-30T01:31:57;1.40;99.90
8248;DHT22;4164;49.844;8.830;2024-01-30T01:34:24;1.40;99.90
8248;DHT22;4164;49.844;8.830;2024-01-30T01:36:50;1.50;99.90
8248;DHT22;4164;49.844;8.830;2024-01-30T01:39:16;1.40;99.90
8248;DHT22;4164;49.844;8.830;2024-01-30T01:41:41;1.30;99.90
8248;DHT22;4164;49.844;8.830;2024-01-30T01:44:08;1.30;99.90
8248;DHT22;4164;49.844;8.830;2024-01-30T01:46:34;1.00;1.00
8248;DHT22;4164;49.844;8.830;2024-01-30T01:49:04;1.00;1.00
8248;DHT22;4164;49.844;8.830;2024-01-30T01:51:33;1.00;1.00
8248;DHT22;4164;49.844;8.830;2024-01-30T01:54:00;0.90;1.00
8248;DHT22;4164;49.844;8.830;2024-01-30T01:56:27;0.70;1.00
8248;DHT22;4164;49.844;8.830;2024-01-30T01:58:55;0.80;1.00
8248;DHT22;4164;49.844;8.830;2024-01-30T02:01:21;0.90;1.00
8248;DHT22;4164;49.844;8.830;2024-01-30T02:03:47;1.00;1.00
8248;DHT22;4164;49.844;8.830;2024-01-30T02:06:14;0.90;1.00
8248;DHT22;4164;49.844;8.830;2024-01-30T02:08:43;0.90;1.00
8248;DHT22;4164;49.844;8.830;2024-01-30T02:11:11;0.90;1.00
8248;DHT22;4164;49.844;8.830;2024-01-30T02:13:37;1.10;1.00
8248;DHT22;4164;49.844;8.830;2024-01-30T02:16:02;1.20;1.00
8248;DHT22;4164;49.844;8.830;2024-01-30T02:18:31;1.10;1.00
8248;DHT22;4164;49.844;8.830;2024-01-30T02:20:58;1.10;1.00
8248;DHT22;4164;49.844;8.830;2024-01-30T02:23:27;1.00;1.00
8248;DHT22;4164;49.844;8.830;2024-01-30T02:25:52;1.10;1.00
8248;DHT22;4164;49.844;8.830;2024-01-30T02:28:19;1.10;1.00
8248;DHT22;4164;49.844;8.830;2024-01-30T02:30:45;1.10;1.00
8248;DHT22;4164;49.844;8.830;2024-01-30T02:33:11;1.20;1.00
8248;DHT22;4164;49.844;8.830;2024-01-30T02:35:39;1.10;1.00
8248;DHT22;4164;49.844;8.830;2024-01-30T02:38:05;1.00;1.00
8248;DHT22;4164;49.844;8.830;2024-01-30T02:40:31;1.10;1.00
8248;DHT22;4164;49.844;8.830;2024-01-30T02:42:58;1.00;99.90
8248;DHT22;4164;49.844;8.830;2024-01-30T02:45:24;1.00;1.00
8248;DHT22;4164;49.844;8.830;2024-01-30T02:47:52;1.00;1.00
8248;DHT22;4164;49.844;8.830;2024-01-30T02:50:18;1.00;1.00
8248;DHT22;4164;49.844;8.830;2024-01-30T02:52:44;0.90;1.00
8248;DHT22;4164;49.844;8.830;2024-01-30T02:55:10;0.90;1.00
8248;DHT22;4164;49.844;8.830;2024-01-30T02:57:36;0.70;1.00
8248;DHT22;4164;49.844;8.830;2024-01-30T03:00:01;0.70;1.00
8248;DHT22;4164;49.844;8.830;2024-01-30T03:02:28;0.80;1.00
8248;DHT22;4164;49.844;8.830;2024-01-30T03:04:53;0.60;1.00
8248;DHT22;4164;49.844;8.830;2024-01-30T03:07:19;0.50;1.00
8248;DHT22;4164;49.844;8.830;2024-01-30T03:09:44;0.60;1.00
8248;DHT22;4164;49.844;8.830;2024-01-30T03:12:10;0.70;1.00
8248;DHT22;4164;49.844;8.830;2024-01-30T03:14:36;0.70;1.00
8248;DHT22;4164;49.844;8.830;2024-01-30T03:17:01;0.90;1.00
8248;DHT22;4164;49.844;8.830;2024-01-30T03:19:28;0.90;1.00
8248;DHT22;4164;49.844;8.830;2024-01-30T03:21:56;0.70;1.00
8248;DHT22;4164;49.844;8.830;2024-01-30T03:24:22;0.60;1.00
8248;DHT22;4164;49.844;8.830;2024-01-30T03:26:50;0.70;1.00
8248;DHT22;4164;49.844;8.830;2024-01-30T03:29:19;0.60;1.00
8248;DHT22;4164;49.844;8.830;2024-01-30T03:31:44;0.70;1.00
8248;DHT22;4164;49.844;8.830;2024-01-30T03:34:10;0.80;1.00
8248;DHT22;4164;49.844;8.830;2024-01-30T03:36:35;0.80;99.90
8248;DHT22;4164;49.844;8.830;2024-01-30T03:39:01;0.80;99.90
8248;DHT22;4164;49.844;8.830;2024-01-30T03:41:27;0.80;99.90
8248;DHT22;4164;49.844;8.830;2024-01-30T03:43:55;0.80;99.90
8248;DHT22;4164;49.844;8.830;2024-01-30T03:46:21;0.80;99.90
8248;DHT22;4164;49.844;8.830;2024-01-30T03:48:46;0.60;99.90
8248;DHT22;4164;49.844;8.830;2024-01-30T03:51:12;0.70;99.90
8248;DHT22;4164;49.844;8.830;2024-01-30T03:53:44;0.90;99.90
8248;DHT22;4164;49.844;8.830;2024-01-30T03:56:11;0.80;99.90
8248;DHT22;4164;49.844;8.830;2024-01-30T03:58:38;0.80;99.90
8248;DHT22;4164;49.844;8.830;2024-01-30T04:01:07;0.70;99.90
8248;DHT22;4164;49.844;8.830;2024-01-30T04:03:32;0.60;99.90
8248;DHT22;4164;49.844;8.830;2024-01-30T04:05:58;0.60;99.90
8248;DHT22;4164;49.844;8.830;2024-01-30T04:08:23;1.50;99.90
8248;DHT22;4164;49.844;8.830;2024-01-30T04:10:49;0.80;99.90
8248;DHT22;4164;49.844;8.830;2024-01-30T04:13:14;0.60;99.90
8248;DHT22;4164;49.844;8.830;2024-01-30T04:15:43;0.70;99.90
8248;DHT22;4164;49.844;8.830;2024-01-30T04:18:09;0.70;99.90
8248;DHT22;4164;49.844;8.830;2024-01-30T04:20:34;0.70;99.90
8248;DHT22;4164;49.844;8.830;2024-01-30T04:23:00;0.80;99.90
8248;DHT22;4164;49.844;8.830;2024-01-30T04:25:25;0.60;99.90
8248;DHT22;4164;49.844;8.830;2024-01-30T04:27:51;0.40;99.90
8248;DHT22;4164;49.844;8.830;2024-01-30T04:30:16;0.50;99.90
8248;DHT22;4164;49.844;8.830;2024-01-30T04:32:43;0.30;1.00
8248;DHT22;4164;49.844;8.830;2024-01-30T04:35:09;0.20;1.00
8248;DHT22;4164;49.844;8.830;2024-01-30T04:37:34;0.00;1.00
8248;DHT22;4164;49.844;8.830;2024-01-30T04:40:00;0.20;1.00
8248;DHT22;4164;49.844;8.830;2024-01-30T04:42:25;0.60;1.00
8248;DHT22;4164;49.844;8.830;2024-01-30T04:44:51;0.60;1.00
8248;DHT22;4164;49.844;8.830;2024-01-30T04:47:17;0.50;99.90
8248;DHT22;4164;49.844;8.830;2024-01-30T04:49:42;0.40;99.90
8248;DHT22;4164;49.844;8.830;2024-01-30T04:52:11;0.40;99.90
8248;DHT22;4164;49.844;8.830;2024-01-30T04:54:36;0.50;99.90
8248;DHT22;4164;49.844;8.830;2024-01-30T04:57:02;0.50;99.90
8248;DHT22;4164;49.844;8.830;2024-01-30T04:59:28;0.50;99.90
8248;DHT22;4164;49.844;8.830;2024-01-30T05:01:54;0.50;99.90
8248;DHT22;4164;49.844;8.830;2024-01-30T05:04:20;0.50;99.90
8248;DHT22;4164;49.844;8.830;2024-01-30T05:06:46;0.70;99.90
8248;DHT22;4164;49.844;8.830;2024-01-30T05:09:11;0.80;99.90
8248;DHT22;4164;49.844;8.830;2024-01-30T05:11:38;0.80;99.90
8248;DHT22;4164;49.844;8.830;2024-01-30T05:14:04;0.80;99.90
8248;DHT22;4164;49.844;8.830;2024-01-30T05:16:32;0.80;99.90
8248;DHT22;4164;49.844;8.830;2024-01-30T05:18:58;0.70;99.90
8248;DHT22;4164;49.844;8.830;2024-01-30T05:21:24;0.70;99.90
8248;DHT22;4164;49.844;8.830;2024-01-30T05:23:50;0.80;99.90
8248;DHT22;4164;49.844;8.830;2024-01-30T05:26:15;0.80;99.90
8248;DHT22;4164;49.844;8.830;2024-01-30T05:28:41;0.80;99.90
8248;DHT22;4164;49.844;8.830;2024-01-30T05:31:13;0.80;99.90
8248;DHT22;4164;49.844;8.830;2024-01-30T05:33:39;0.50;99.90
8248;DHT22;4164;49.844;8.830;2024-01-30T05:36:05;0.50;99.90
8248;DHT22;4164;49.844;8.830;2024-01-30T05:38:31;0.30;99.90
8248;DHT22;4164;49.844;8.830;2024-01-30T05:40:57;0.50;99.90
8248;DHT22;4164;49.844;8.830;2024-01-30T05:43:25;0.40;99.90
8248;DHT22;4164;49.844;8.830;2024-01-30T05:45:52;0.30;99.90
8248;DHT22;4164;49.844;8.830;2024-01-30T05:48:18;0.50;99.90
8248;DHT22;4164;49.844;8.830;2024-01-30T05:50:43;0.60;99.90
8248;DHT22;4164;49.844;8.830;2024-01-30T05:53:13;0.50;99.90
8248;DHT22;4164;49.844;8.830;2024-01-30T05:55:38;0.40;99.90
8248;DHT22;4164;49.844;8.830;2024-01-30T05:58:04;0.60;99.90
8248;DHT22;4164;49.844;8.830;2024-01-30T06:00:30;0.70;99.90
8248;DHT22;4164;49.844;8.830;2024-01-30T06:02:55;0.80;99.90
8248;DHT22;4164;49.844;8.830;2024-01-30T06:05:21;0.70;99.90
8248;DHT22;4164;49.844;8.830;2024-01-30T06:07:46;0.50;99.90
8248;DHT22;4164;49.844;8.830;2024-01-30T06:10:12;0.40;99.90
8248;DHT22;4164;49.844;8.830;2024-01-30T06:12:38;0.50;99.90
8248;DHT22;4164;49.844;8.830;2024-01-30T06:15:04;0.40;99.90
8248;DHT22;4164;49.844;8.830;2024-01-30T06:17:29;0.40;99.90
8248;DHT22;4164;49.844;8.830;2024-01-30T06:19:55;0.50;99.90
8248;DHT22;4164;49.844;8.830;2024-01-30T06:22:20;0.30;99.90
8248;DHT22;4164;49.844;8.830;2024-01-30T06:24:49;0.50;99.90
8248;DHT22;4164;49.844;8.830;2024-01-30T06:27:15;0.60;99.90
8248;DHT22;4164;49.844;8.830;2024-01-30T06:29:41;0.50;99.90
8248;DHT22;4164;49.844;8.830;2024-01-30T06:32:06;0.50;99.90
8248;DHT22;4164;49.844;8.830;2024-01-30T06:34:32;0.40;99.90
8248;DHT22;4164;49.844;8.830;2024-01-30T06:36:58;0.50;99.90
8248;DHT22;4164;49.844;8.830;2024-01-30T06:39:23;0.30;99.90
8248;DHT22;4164;49.844;8.830;2024-01-30T06:41:49;0.30;1.00
8248;DHT22;4164;49.844;8.830;2024-01-30T06:44:14;0.30;1.00
8248;DHT22;4164;49.844;8.830;2024-01-30T06:46:40;0.50;1.00
8248;DHT22;4164;49.844;8.830;2024-01-30T06:49:05;0.40;1.00
8248;DHT22;4164;49.844;8.830;2024-01-30T06:51:31;0.60;99.90
8248;DHT22;4164;49.844;8.830;2024-01-30T06:53:57;0.60;99.90
8248;DHT22;4164;49.844;8.830;2024-01-30T06:56:23;0.70;99.90
8248;DHT22;4164;49.844;8.830;2024-01-30T06:58:49;0.40;99.90
8248;DHT22;4164;49.844;8.830;2024-01-30T07:01:15;0.50;1.00
8248;DHT22;4164;49.844;8.830;2024-01-30T07:03:41;0.20;1.00
8248;DHT22;4164;49.844;8.830;2024-01-30T07:06:06;0.30;1.00
8248;DHT22;4164;49.844;8.830;2024-01-30T07:08:32;0.20;1.00
8248;DHT22;4164;49.844;8.830;2024-01-30T07:10:57;0.20;1.00
8248;DHT22;4164;49.844;8.830;2024-01-30T07:13:23;0.20;1.00
8248;DHT22;4164;49.844;8.830;2024-01-30T07:15:48;0.40;1.00
8248;DHT22;4164;49.844;8.830;2024-01-30T07:18:14;0.30;1.00
8248;DHT22;4164;49.844;8.830;2024-01-30T07:20:40;0.50;1.00
8248;DHT22;4164;49.844;8.830;2024-01-30T07:23:14;0.30;1.00
8248;DHT22;4164;49.844;8.830;2024-01-30T07:25:42;0.40;1.00
8248;DHT22;4164;49.844;8.830;2024-01-30T07:28:11;0.40;1.00
8248;DHT22;4164;49.844;8.830;2024-01-30T07:30:37;0.70;1.00
8248;DHT22;4164;49.844;8.830;2024-01-30T07:33:09;0.60;1.00
8248;DHT22;4164;49.844;8.830;2024-01-30T07:35:35;0.80;1.00
8248;DHT22;4164;49.844;8.830;2024-01-30T07:38:01;0.80;1.00
8248;DHT22;4164;49.844;8.830;2024-01-30T07:40:27;0.70;1.00
8248;DHT22;4164;49.844;8.830;2024-01-30T07:42:55;0.70;1.00
8248;DHT22;4164;49.844;8.830;2024-01-30T07:45:21;0.70;1.00
8248;DHT22;4164;49.844;8.830;2024-01-30T07:47:49;0.90;1.00
8248;DHT22;4164;49.844;8.830;2024-01-30T07:50:15;0.70;1.00
8248;DHT22;4164;49.844;8.830;2024-01-30T07:52:40;0.80;1.00
8248;DHT22;4164;49.844;8.830;2024-01-30T07:55:06;1.00;99.90
8248;DHT22;4164;49.844;8.830;2024-01-30T07:57:33;1.10;99.90
8248;DHT22;4164;49.844;8.830;2024-01-30T07:59:59;1.10;99.90
8248;DHT22;4164;49.844;8.830;2024-01-30T08:02:25;1.10;1.00
8248;DHT22;4164;49.844;8.830;2024-01-30T08:04:51;1.20;1.00
8248;DHT22;4164;49.844;8.830;2024-01-30T08:07:16;1.30;1.00
8248;DHT22;4164;49.844;8.830;2024-01-30T08:09:43;1.50;99.90
8248;DHT22;4164;49.844;8.830;2024-01-30T08:12:09;1.60;99.90
8248;DHT22;4164;49.844;8.830;2024-01-30T08:14:35;1.60;99.90
8248;DHT22;4164;49.844;8.830;2024-01-30T08:17:00;1.50;99.90
8248;DHT22;4164;49.844;8.830;2024-01-30T08:19:26;1.40;99.90
8248;DHT22;4164;49.844;8.830;2024-01-30T08:21:51;1.80;99.90
8248;DHT22;4164;49.844;8.830;2024-01-30T08:24:17;1.80;99.90
8248;DHT22;4164;49.844;8.830;2024-01-30T08:26:42;2.00;99.90
8248;DHT22;4164;49.844;8.830;2024-01-30T08:29:08;2.00;99.90
8248;DHT22;4164;49.844;8.830;2024-01-30T08:31:34;1.70;99.90
8248;DHT22;4164;49.844;8.830;2024-01-30T08:34:02;1.80;1.00
8248;DHT22;4164;49.844;8.830;2024-01-30T08:36:28;2.10;99.90
8248;DHT22;4164;49.844;8.830;2024-01-30T08:38:53;2.30;99.90
8248;DHT22;4164;49.844;8.830;2024-01-30T08:41:19;2.60;99.90
8248;DHT22;4164;49.844;8.830;2024-01-30T08:43:45;2.60;99.90
8248;DHT22;4164;49.844;8.830;2024-01-30T08:46:11;2.40;99.90
8248;DHT22;4164;49.844;8.830;2024-01-30T08:48:36;2.40;99.90
8248;DHT22;4164;49.844;8.830;2024-01-30T08:51:02;2.60;99.90
8248;DHT22;4164;49.844;8.830;2024-01-30T08:53:28;2.60;99.90
8248;DHT22;4164;49.844;8.830;2024-01-30T08:55:53;2.70;99.90
8248;DHT22;4164;49.844;8.830;2024-01-30T08:58:19;3.00;99.90
8248;DHT22;4164;49.844;8.830;2024-01-30T09:00:44;3.10;99.90
8248;DHT22;4164;49.844;8.830;2024-01-30T09:03:10;3.10;99.90
8248;DHT22;4164;49.844;8.830;2024-01-30T09:05:36;3.10;99.90
8248;DHT22;4164;49.844;8.830;2024-01-30T09:08:01;3.00;99.90
8248;DHT22;4164;49.844;8.830;2024-01-30T09:10:27;3.20;99.90
8248;DHT22;4164;49.844;8.830;2024-01-30T09:12:52;3.60;99.90
8248;DHT22;4164;49.844;8.830;2024-01-30T09:15:18;3.90;99.90
8248;DHT22;4164;49.844;8.830;2024-01-30T09:17:44;3.80;99.90
8248;DHT22;4164;49.844;8.830;2024-01-30T09:20:10;4.00;99.90
8248;DHT22;4164;49.844;8.830;2024-01-30T09:22:36;4.00;99.90
8248;DHT22;4164;49.844;8.830;2024-01-30T09:25:01;4.20;99.90
8248;DHT22;4164;49.844;8.830;2024-01-30T09:27:27;4.40;99.90
8248;DHT22;4164;49.844;8.830;2024-01-30T09:29:52;4.20;99.90
8248;DHT22;4164;49.844;8.830;2024-01-30T09:32:18;4.30;99.90
8248;DHT22;4164;49.844;8.830;2024-01-30T09:34:46;4.20;99.90
8248;DHT22;4164;49.844;8.830;2024-01-30T09:37:12;4.20;99.90
8248;DHT22;4164;49.844;8.830;2024-01-30T09:39:40;4.30;99.90
8248;DHT22;4164;49.844;8.830;2024-01-30T09:42:21;4.50;99.90
8248;DHT22;4164;49.844;8.830;2024-01-30T09:44:51;4.30;99.90
8248;DHT22;4164;49.844;8.830;2024-01-30T09:47:17;4.30;99.90
8248;DHT22;4164;49.844;8.830;2024-01-30T09:49:43;4.40;99.90
8248;DHT22;4164;49.844;8.830;2024-01-30T09:52:09;4.30;99.90
8248;DHT22;4164;49.844;8.830;2024-01-30T09:54:36;4.40;99.90
8248;DHT22;4164;49.844;8.830;2024-01-30T09:57:03;4.80;99.90
8248;DHT22;4164;49.844;8.830;2024-01-30T09:59:29;5.10;99.90
8248;DHT22;4164;49.844;8.830;2024-01-30T10:01:55;5.00;99.90
8248;DHT22;4164;49.844;8.830;2024-01-30T10:04:22;5.50;99.90
8248;DHT22;4164;49.844;8.830;2024-01-30T10:06:47;6.00;99.90
8248;DHT22;4164;49.844;8.830;2024-01-30T10:09:13;6.70;99.90
8248;DHT22;4164;49.844;8.830;2024-01-30T10:11:39;7.40;99.90
8248;DHT22;4164;49.844;8.830;2024-01-30T10:14:04;8.20;99.90
8248;DHT22;4164;49.844;8.830;2024-01-30T10:16:34;8.10;99.90
8248;DHT22;4164;49.844;8.830;2024-01-30T10:19:00;8.10;99.90
8248;DHT22;4164;49.844;8.830;2024-01-30T10:21:25;8.70;99.90
8248;DHT22;4164;49.844;8.830;2024-01-30T10:23:51;8.90;99.90
8248;DHT22;4164;49.844;8.830;2024-01-30T10:26:17;9.20;99.90
8248;DHT22;4164;49.844;8.830;2024-01-30T10:28:43;9.10;99.90
8248;DHT22;4164;49.844;8.830;2024-01-30T10:31:08;8.90;99.90
8248;DHT22;4164;49.844;8.830;2024-01-30T10:33:34;8.90;99.90
8248;DHT22;4164;49.844;8.830;2024-01-30T10:36:04;8.40;99.90
8248;DHT22;4164;49.844;8.830;2024-01-30T10:38:31;8.30;99.90
8248;DHT22;4164;49.844;8.830;2024-01-30T10:41:01;8.40;99.90
8248;DHT22;4164;49.844;8.830;2024-01-30T10:43:39;8.20;99.90
8248;DHT22;4164;49.844;8.830;2024-01-30T10:46:11;8.20;99.90
8248;DHT22;4164;49.844;8.830;2024-01-30T10:48:42;8.30;99.90
8248;DHT22;4164;49.844;8.830;2024-01-30T10:51:09;8.10;99.90
8248;DHT22;4164;49.844;8.830;2024-01-30T10:53:36;8.50;99.90
8248;DHT22;4164;49.844;8.830;2024-01-30T10:56:03;8.50;99.90
8248;DHT22;4164;49.844;8.830;2024-01-30T10:58:29;8.30;99.90
8248;DHT22;4164;49.844;8.830;2024-01-30T11:00:55;8.40;99.90
8248;DHT22;4164;49.844;8.830;2024-01-30T11:03:21;8.60;99.90
8248;DHT22;4164;49.844;8.830;2024-01-30T11:05:51;8.60;99.90
8248;DHT22;4164;49.844;8.830;2024-01-30T11:08:26;9.40;99.90
8248;DHT22;4164;49.844;8.830;2024-01-30T11:10:57;9.90;99.90
8248;DHT22;4164;49.844;8.830;2024-01-30T11:13:27;9.80;99.90
8248;DHT22;4164;49.844;8.830;2024-01-30T11:15:54;9.80;99.90
8248;DHT22;4164;49.844;8.830;2024-01-30T11:18:26;9.30;99.90
8248;DHT22;4164;49.844;8.830;2024-01-30T11:20:56;9.30;99.90
8248;DHT22;4164;49.844;8.830;2024-01-30T11:23:22;9.30;99.90
8248;DHT22;4164;49.844;8.830;2024-01-30T11:25:48;9.90;99.90
8248;DHT22;4164;49.844;8.830;2024-01-30T11:28:15;10.30;99.90
8248;DHT22;4164;49.844;8.830;2024-01-30T11:30:41;10.20;99.90
8248;DHT22;4164;49.844;8.830;2024-01-30T11:35:35;10.40;99.90
8248;DHT22;4164;49.844;8.830;2024-01-30T11:38:01;11.00;99.90
8248;DHT22;4164;49.844;8.830;2024-01-30T11:40:31;12.30;99.90
8248;DHT22;4164;49.844;8.830;2024-01-30T11:43:01;14.10;99.90
8248;DHT22;4164;49.844;8.830;2024-01-30T11:45:27;14.90;99.90
8248;DHT22;4164;49.844;8.830;2024-01-30T11:47:54;15.30;99.90
8248;DHT22;4164;49.844;8.830;2024-01-30T11:50:20;14.50;99.90
8248;DHT22;4164;49.844;8.830;2024-01-30T11:52:47;14.40;99.90
8248;DHT22;4164;49.844;8.830;2024-01-30T11:55:14;14.80;99.90
8248;DHT22;4164;49.844;8.830;2024-01-30T11:57:43;15.00;99.90
8248;DHT22;4164;49.844;8.830;2024-01-30T12:00:17;15.00;99.90
8248;DHT22;4164;49.844;8.830;2024-01-30T12:02:44;15.70;99.90
8248;DHT22;4164;49.844;8.830;2024-01-30T12:05:14;15.50;99.90
8248;DHT22;4164;49.844;8.830;2024-01-30T12:07:39;15.00;99.90
8248;DHT22;4164;49.844;8.830;2024-01-30T12:10:05;14.10;99.90
8248;DHT22;4164;49.844;8.830;2024-01-30T12:12:31;13.50;99.90
8248;DHT22;4164;49.844;8.830;2024-01-30T12:14:57;12.60;99.90
8248;DHT22;4164;49.844;8.830;2024-01-30T12:17:32;12.10;99.90
8248;DHT22;4164;49.844;8.830;2024-01-30T12:20:13;11.20;99.90
8248;DHT22;4164;49.844;8.830;2024-01-30T12:22:44;10.60;99.90
8248;DHT22;4164;49.844;8.830;2024-01-30T12:27:36;10.40;99.90
8248;DHT22;4164;49.844;8.830;2024-01-30T12:30:08;11.00;99.90
8248;DHT22;4164;49.844;8.830;2024-01-30T12:32:41;11.40;99.90
8248;DHT22;4164;49.844;8.830;2024-01-30T12:35:15;11.40;99.90
8248;DHT22;4164;49.844;8.830;2024-01-30T12:37:43;11.70;99.90
8248;DHT22;4164;49.844;8.830;2024-01-30T12:40:10;12.10;99.90
8248;DHT22;4164;49.844;8.830;2024-01-30T12:42:36;12.90;99.90
8248;DHT22;4164;49.844;8.830;2024-01-30T12:45:05;13.80;99.90
8248;DHT22;4164;49.844;8.830;2024-01-30T12:47:31;14.80;99.90
8248;DHT22;4164;49.844;8.830;2024-01-30T12:49:57;15.10;99.90
8248;DHT22;4164;49.844;8.830;2024-01-30T12:52:23;15.20;99.90
8248;DHT22;4164;49.844;8.830;2024-01-30T12:54:49;15.20;99.90
8248;DHT22;4164;49.844;8.830;2024-01-30T12:57:15;15.00;99.90
8248;DHT22;4164;49.844;8.830;2024-01-30T12:59:41;14.50;99.90
8248;DHT22;4164;49.844;8.830;2024-01-30T13:02:07;14.10;99.90
8248;DHT22;4164;49.844;8.830;2024-01-30T13:04:33;14.50;99.90
8248;DHT22;4164;49.844;8.830;2024-01-30T13:06:59;14.10;99.90
8248;DHT22;4164;49.844;8.830;2024-01-30T13:09:26;14.10;99.90
8248;DHT22;4164;49.844;8.830;2024-01-30T13:11:52;13.60;99.90
8248;DHT22;4164;49.844;8.830;2024-01-30T13:14:18;13.60;99.90
8248;DHT22;4164;49.844;8.830;2024-01-30T13:16:47;13.60;99.90
8248;DHT22;4164;49.844;8.830;2024-01-30T13:19:12;13.50;99.90
8248;DHT22;4164;49.844;8.830;2024-01-30T13:21:38;13.40;99.90
8248;DHT22;4164;49.844;8.830;2024-01-30T13:24:04;13.60;99.90
8248;DHT22;4164;49.844;8.830;2024-01-30T13:26:32;13.60;99.90
8248;DHT22;4164;49.844;8.830;2024-01-30T13:28:57;13.40;99.90
8248;DHT22;4164;49.844;8.830;2024-01-30T13:31:23;13.10;99.90
8248;DHT22;4164;49.844;8.830;2024-01-30T13:33:48;13.20;99.90
8248;DHT22;4164;49.844;8.830;2024-01-30T13:36:14;13.00;99.90
8248;DHT22;4164;49.844;8.830;2024-01-30T13:38:40;12.80;99.90
8248;DHT22;4164;49.844;8.830;2024-01-30T13:41:06;13.10;99.90
8248;DHT22;4164;49.844;8.830;2024-01-30T13:43:32;13.30;99.90
8248;DHT22;4164;49.844;8.830;2024-01-30T13:45:57;13.30;99.90
8248;DHT22;4164;49.844;8.830;2024-01-30T13:48:23;13.30;99.90
8248;DHT22;4164;49.844;8.830;2024-01-30T13:50:49;13.40;99.90
8248;DHT22;4164;49.844;8.830;2024-01-30T13:53:14;13.20;99.90
8248;DHT22;4164;49.844;8.830;2024-01-30T13:55:40;13.10;99.90
8248;DHT22;4164;49.844;8.830;2024-01-30T13:58:06;13.20;99.90
8248;DHT22;4164;49.844;8.830;2024-01-30T14:00:32;13.10;99.90
8248;DHT22;4164;49.844;8.830;2024-01-30T14:03:02;13.00;99.90
8248;DHT22;4164;49.844;8.830;2024-01-30T14:05:28;12.70;99.90
8248;DHT22;4164;49.844;8.830;2024-01-30T14:07:54;12.50;99.90
8248;DHT22;4164;49.844;8.830;2024-01-30T14:10:20;12.40;99.90
8248;DHT22;4164;49.844;8.830;2024-01-30T14:12:46;12.50;99.90
8248;DHT22;4164;49.844;8.830;2024-01-30T14:15:13;12.40;99.90
8248;DHT22;4164;49.844;8.830;2024-01-30T14:17:41;12.30;99.90
8248;DHT22;4164;49.844;8.830;2024-01-30T14:20:07;12.10;99.90
8248;DHT22;4164;49.844;8.830;2024-01-30T14:22:34;12.00;99.90
8248;DHT22;4164;49.844;8.830;2024-01-30T14:25:00;12.00;99.90
8248;DHT22;4164;49.844;8.830;2024-01-30T14:27:27;11.90;99.90
8248;DHT22;4164;49.844;8.830;2024-01-30T14:29:52;11.90;99.90
8248;DHT22;4164;49.844;8.830;2024-01-30T14:32:21;11.80;99.90
8248;DHT22;4164;49.844;8.830;2024-01-30T14:34:47;11.90;99.90
8248;DHT22;4164;49.844;8.830;2024-01-30T14:37:12;12.00;99.90
8248;DHT22;4164;49.844;8.830;2024-01-30T14:39:38;11.90;99.90
8248;DHT22;4164;49.844;8.830;2024-01-30T14:42:06;11.80;99.90
8248;DHT22;4164;49.844;8.830;2024-01-30T14:44:32;11.80;99.90
8248;DHT22;4164;49.844;8.830;2024-01-30T14:47:01;11.70;99.90
8248;DHT22;4164;49.844;8.830;2024-01-30T14:49:28;11.60;99.90
8248;DHT22;4164;49.844;8.830;2024-01-30T14:51:53;11.70;99.90
8248;DHT22;4164;49.844;8.830;2024-01-30T14:54:19;11.80;99.90
8248;DHT22;4164;49.844;8.830;2024-01-30T14:56:45;11.80;99.90
8248;DHT22;4164;49.844;8.830;2024-01-30T14:59:10;11.60;99.90
8248;DHT22;4164;49.844;8.830;2024-01-30T15:01:38;11.30;99.90
8248;DHT22;4164;49.844;8.830;2024-01-30T15:04:04;11.20;99.90
8248;DHT22;4164;49.844;8.830;2024-01-30T15:06:30;11.20;99.90
8248;DHT22;4164;49.844;8.830;2024-01-30T15:08:55;11.20;99.90
8248;DHT22;4164;49.844;8.830;2024-01-30T15:11:21;11.20;99.90
8248;DHT22;4164;49.844;8.830;2024-01-30T15:13:47;11.10;99.90
8248;DHT22;4164;49.844;8.830;2024-01-30T15:16:12;11.10;99.90
8248;DHT22;4164;49.844;8.830;2024-01-30T15:18:38;11.00;99.90
8248;DHT22;4164;49.844;8.830;2024-01-30T15:21:04;10.90;99.90
8248;DHT22;4164;49.844;8.830;2024-01-30T15:23:32;10.80;99.90
8248;DHT22;4164;49.844;8.830;2024-01-30T15:25:58;10.80;99.90
8248;DHT22;4164;49.844;8.830;2024-01-30T15:28:34;10.80;99.90
8248;DHT22;4164;49.844;8.830;2024-01-30T15:31:04;10.80;99.90
8248;DHT22;4164;49.844;8.830;2024-01-30T15:33:29;10.70;99.90
8248;DHT22;4164;49.844;8.830;2024-01-30T15:35:56;10.60;99.90
8248;DHT22;4164;49.844;8.830;2024-01-30T15:38:25;10.50;99.90
8248;DHT22;4164;49.844;8.830;2024-01-30T15:40:51;10.40;99.90
8248;DHT22;4164;49.844;8.830;2024-01-30T15:43:17;10.30;99.90
8248;DHT22;4164;49.844;8.830;2024-01-30T15:45:42;10.50;99.90
8248;DHT22;4164;49.844;8.830;2024-01-30T15:48:08;10.40;99.90
8248;DHT22;4164;49.844;8.830;2024-01-30T15:50:34;10.40;99.90
8248;DHT22;4164;49.844;8.830;2024-01-30T15:52:59;10.40;99.90
8248;DHT22;4164;49.844;8.830;2024-01-30T15:55:25;10.40;99.90
8248;DHT22;4164;49.844;8.830;2024-01-30T15:57:51;10.30;99.90
8248;DHT22;4164;49.844;8.830;2024-01-30T16:00:16;10.30;99.90
8248;DHT22;4164;49.844;8.830;2024-01-30T16:02:42;10.10;99.90
8248;DHT22;4164;49.844;8.830;2024-01-30T16:05:08;9.80;99.90
8248;DHT22;4164;49.844;8.830;2024-01-30T16:07:38;9.70;99.90
8248;DHT22;4164;49.844;8.830;2024-01-30T16:10:04;9.90;99.90
8248;DHT22;4164;49.844;8.830;2024-01-30T16:12:29;9.90;99.90
8248;DHT22;4164;49.844;8.830;2024-01-30T16:14:55;10.00;99.90
8248;DHT22;4164;49.844;8.830;2024-01-30T16:17:20;9.90;99.90